sensor_id;sensor_type;location;lat;lon;timestamp;P1;durP1;ratioP1;P2;durP2;ratioP2
23015;SDS011;11674;52.428;13.584;2023-04-09T00:04:54;37.08;;;20.45;;
23015;SDS011;11674;52.428;13.584;2023-04-09T00:10:01;31.60;;;18.98;;
23015;SDS011;11674;52.428;13.584;2023-04-09T00:15:08;36.80;;;21.50;;
23015;SDS011;11674;52.428;13.584;2023-04-09T00:20:15;40.72;;;23.55;;
23015;SDS011;11674;52.428;13.584;2023-04-09T00:25:22;41.17;;;22.67;;
23015;SDS011;11674;52.428;13.584;2023-04-09T00:30:29;39.45;;;21.50;;
23015;SDS011;11674;52.428;13.584;2023-04-09T00:35:37;41.10;;;22.15;;
23015;SDS011;11674;52.428;13.584;2023-04-09T00:40:47;39.55;;;22.00;;
23015;SDS011;11674;52.428;13.584;2023-04-09T00:45:57;39.33;;;22.52;;
23015;SDS011;11674;52.428;13.584;2023-04-09T00:51:05;40.88;;;22.75;;
23015;SDS011;11674;52.428;13.584;2023-04-09T00:56:14;38.83;;;21.77;;
23015;SDS011;11674;52.428;13.584;2023-04-09T01:01:23;41.47;;;23.15;;
23015;SDS011;11674;52.428;13.584;2023-04-09T01:06:44;42.97;;;22.95;;
23015;SDS011;11674;52.428;13.584;2023-04-09T01:12:11;44.10;;;21.63;;
23015;SDS011;11674;52.428;13.584;2023-04-09T01:17:39;36.75;;;21.70;;
23015;SDS011;11674;52.428;13.584;2023-04-09T01:33:25;35.67;;;20.52;;
23015;SDS011;11674;52.428;13.584;2023-04-09T01:38:34;36.13;;;21.48;;
23015;SDS011;11674;52.428;13.584;2023-04-09T01:43:42;35.42;;;20.08;;
23015;SDS011;11674;52.428;13.584;2023-04-09T01:48:50;32.47;;;20.02;;
23015;SDS011;11674;52.428;13.584;2023-04-09T01:53:57;37.50;;;19.95;;
23015;SDS011;11674;52.428;13.584;2023-04-09T01:59:05;41.72;;;20.80;;
23015;SDS011;11674;52.428;13.584;2023-04-09T02:04:21;37.28;;;20.60;;
23015;SDS011;11674;52.428;13.584;2023-04-09T02:09:33;35.15;;;20.73;;
23015;SDS011;11674;52.428;13.584;2023-04-09T02:14:46;36.10;;;21.35;;
23015;SDS011;11674;52.428;13.584;2023-04-09T02:19:56;42.72;;;21.67;;
23015;SDS011;11674;52.428;13.584;2023-04-09T02:25:03;38.15;;;21.55;;
23015;SDS011;11674;52.428;13.584;2023-04-09T02:30:10;42.58;;;23.13;;
23015;SDS011;11674;52.428;13.584;2023-04-09T02:35:17;44.03;;;23.90;;
23015;SDS011;11674;52.428;13.584;2023-04-09T02:40:24;39.75;;;22.02;;
23015;SDS011;11674;52.428;13.584;2023-04-09T02:45:31;42.63;;;22.75;;
23015;SDS011;11674;52.428;13.584;2023-04-09T02:50:38;40.95;;;21.98;;
23015;SDS011;11674;52.428;13.584;2023-04-09T02:55:45;40.58;;;22.13;;
23015;SDS011;11674;52.428;13.584;2023-04-09T03:00:52;40.88;;;22.77;;
23015;SDS011;11674;52.428;13.584;2023-04-09T03:05:59;44.88;;;24.42;;
23015;SDS011;11674;52.428;13.584;2023-04-09T03:11:06;40.78;;;22.63;;
23015;SDS011;11674;52.428;13.584;2023-04-09T03:16:13;39.80;;;22.27;;
23015;SDS011;11674;52.428;13.584;2023-04-09T03:21:20;44.90;;;24.38;;
23015;SDS011;11674;52.428;13.584;2023-04-09T03:26:27;49.72;;;25.88;;
23015;SDS011;11674;52.428;13.584;2023-04-09T03:31:34;42.33;;;23.13;;
23015;SDS011;11674;52.428;13.584;2023-04-09T03:36:41;43.45;;;23.05;;
23015;SDS011;11674;52.428;13.584;2023-04-09T03:41:54;39.15;;;21.58;;
23015;SDS011;11674;52.428;13.584;2023-04-09T03:47:06;41.50;;;22.23;;
23015;SDS011;11674;52.428;13.584;2023-04-09T03:52:13;42.13;;;22.65;;
23015;SDS011;11674;52.428;13.584;2023-04-09T03:57:27;44.17;;;22.58;;
23015;SDS011;11674;52.428;13.584;2023-04-09T04:02:34;40.22;;;21.90;;
23015;SDS011;11674;52.428;13.584;2023-04-09T04:07:51;38.03;;;21.05;;
23015;SDS011;11674;52.428;13.584;2023-04-09T04:13:02;32.53;;;17.08;;
23015;SDS011;11674;52.428;13.584;2023-04-09T04:18:18;51.10;;;25.23;;
23015;SDS011;11674;52.428;13.584;2023-04-09T04:23:27;45.30;;;24.92;;
23015;SDS011;11674;52.428;13.584;2023-04-09T04:28:47;47.75;;;25.08;;
23015;SDS011;11674;52.428;13.584;2023-04-09T04:34:08;45.55;;;23.42;;
23015;SDS011;11674;52.428;13.584;2023-04-09T04:39:19;42.53;;;23.15;;
23015;SDS011;11674;52.428;13.584;2023-04-09T04:44:31;42.58;;;21.23;;
23015;SDS011;11674;52.428;13.584;2023-04-09T04:49:46;41.70;;;19.08;;
23015;SDS011;11674;52.428;13.584;2023-04-09T04:54:55;35.05;;;19.60;;
23015;SDS011;11674;52.428;13.584;2023-04-09T05:00:02;38.08;;;20.98;;
23015;SDS011;11674;52.428;13.584;2023-04-09T05:05:10;39.67;;;22.02;;
23015;SDS011;11674;52.428;13.584;2023-04-09T05:10:23;93.88;;;22.30;;
23015;SDS011;11674;52.428;13.584;2023-04-09T05:15:32;45.38;;;21.73;;
23015;SDS011;11674;52.428;13.584;2023-04-09T05:20:39;43.13;;;20.25;;
23015;SDS011;11674;52.428;13.584;2023-04-09T05:25:49;34.80;;;21.02;;
23015;SDS011;11674;52.428;13.584;2023-04-09T05:31:16;35.20;;;19.15;;
23015;SDS011;11674;52.428;13.584;2023-04-09T05:36:34;42.17;;;18.70;;
23015;SDS011;11674;52.428;13.584;2023-04-09T05:41:41;82.78;;;18.73;;
23015;SDS011;11674;52.428;13.584;2023-04-09T05:47:04;75.70;;;16.58;;
23015;SDS011;11674;52.428;13.584;2023-04-09T05:52:19;66.50;;;17.95;;
23015;SDS011;11674;52.428;13.584;2023-04-09T05:57:26;45.58;;;18.70;;
23015;SDS011;11674;52.428;13.584;2023-04-09T06:02:36;65.22;;;18.67;;
23015;SDS011;11674;52.428;13.584;2023-04-09T06:07:50;52.55;;;18.45;;
23015;SDS011;11674;52.428;13.584;2023-04-09T06:12:57;88.95;;;19.15;;
23015;SDS011;11674;52.428;13.584;2023-04-09T06:18:04;57.15;;;18.30;;
23015;SDS011;11674;52.428;13.584;2023-04-09T06:23:11;52.13;;;19.83;;
23015;SDS011;11674;52.428;13.584;2023-04-09T06:28:18;53.75;;;21.15;;
23015;SDS011;11674;52.428;13.584;2023-04-09T06:33:25;54.50;;;21.17;;
23015;SDS011;11674;52.428;13.584;2023-04-09T06:38:32;50.33;;;20.45;;
23015;SDS011;11674;52.428;13.584;2023-04-09T06:43:39;53.15;;;21.38;;
23015;SDS011;11674;52.428;13.584;2023-04-09T06:48:46;53.60;;;21.60;;
23015;SDS011;11674;52.428;13.584;2023-04-09T06:53:53;42.17;;;20.95;;
23015;SDS011;11674;52.428;13.584;2023-04-09T06:59:00;53.50;;;23.08;;
23015;SDS011;11674;52.428;13.584;2023-04-09T07:04:07;58.95;;;22.42;;
23015;SDS011;11674;52.428;13.584;2023-04-09T07:09:14;59.95;;;24.73;;
23015;SDS011;11674;52.428;13.584;2023-04-09T07:14:21;51.40;;;24.88;;
23015;SDS011;11674;52.428;13.584;2023-04-09T07:19:28;55.88;;;25.60;;
23015;SDS011;11674;52.428;13.584;2023-04-09T07:24:35;51.53;;;25.63;;
23015;SDS011;11674;52.428;13.584;2023-04-09T07:29:45;49.58;;;24.23;;
23015;SDS011;11674;52.428;13.584;2023-04-09T07:34:52;54.10;;;27.08;;
23015;SDS011;11674;52.428;13.584;2023-04-09T07:40:00;51.72;;;26.92;;
23015;SDS011;11674;52.428;13.584;2023-04-09T07:45:14;52.75;;;27.10;;
23015;SDS011;11674;52.428;13.584;2023-04-09T07:50:21;58.53;;;28.33;;
23015;SDS011;11674;52.428;13.584;2023-04-09T07:55:28;53.95;;;27.13;;
23015;SDS011;11674;52.428;13.584;2023-04-09T08:00:35;56.15;;;28.85;;
23015;SDS011;11674;52.428;13.584;2023-04-09T08:05:42;58.55;;;28.85;;
23015;SDS011;11674;52.428;13.584;2023-04-09T08:10:49;55.65;;;28.08;;
23015;SDS011;11674;52.428;13.584;2023-04-09T08:15:57;54.65;;;27.92;;
23015;SDS011;11674;52.428;13.584;2023-04-09T08:21:06;55.95;;;27.50;;
23015;SDS011;11674;52.428;13.584;2023-04-09T08:26:13;55.33;;;26.55;;
23015;SDS011;11674;52.428;13.584;2023-04-09T08:31:20;50.53;;;26.20;;
23015;SDS011;11674;52.428;13.584;2023-04-09T08:36:27;56.13;;;27.70;;
23015;SDS011;11674;52.428;13.584;2023-04-09T08:41:34;48.90;;;25.77;;
23015;SDS011;11674;52.428;13.584;2023-04-09T08:46:47;44.30;;;24.70;;
23015;SDS011;11674;52.428;13.584;2023-04-09T08:51:54;46.75;;;25.70;;
23015;SDS011;11674;52.428;13.584;2023-04-09T08:57:04;47.70;;;25.67;;
23015;SDS011;11674;52.428;13.584;2023-04-09T09:02:12;43.38;;;24.20;;
23015;SDS011;11674;52.428;13.584;2023-04-09T09:07:19;43.05;;;24.45;;
23015;SDS011;11674;52.428;13.584;2023-04-09T09:17:52;47.00;;;25.45;;
23015;SDS011;11674;52.428;13.584;2023-04-09T09:23:01;44.22;;;25.02;;
23015;SDS011;11674;52.428;13.584;2023-04-09T09:28:09;46.15;;;25.30;;
23015;SDS011;11674;52.428;13.584;2023-04-09T09:33:17;45.47;;;24.73;;
23015;SDS011;11674;52.428;13.584;2023-04-09T09:38:24;42.53;;;24.40;;
23015;SDS011;11674;52.428;13.584;2023-04-09T09:43:39;41.90;;;22.90;;
23015;SDS011;11674;52.428;13.584;2023-04-09T09:48:46;41.35;;;23.05;;
23015;SDS011;11674;52.428;13.584;2023-04-09T09:53:54;39.38;;;22.27;;
23015;SDS011;11674;52.428;13.584;2023-04-09T09:59:20;37.50;;;21.90;;
23015;SDS011;11674;52.428;13.584;2023-04-09T10:04:30;36.53;;;20.67;;
23015;SDS011;11674;52.428;13.584;2023-04-09T10:09:41;36.15;;;20.75;;
23015;SDS011;11674;52.428;13.584;2023-04-09T10:14:54;35.85;;;21.15;;
23015;SDS011;11674;52.428;13.584;2023-04-09T10:25:52;34.38;;;20.40;;
23015;SDS011;11674;52.428;13.584;2023-04-09T10:30:59;36.80;;;20.50;;
23015;SDS011;11674;52.428;13.584;2023-04-09T10:36:10;37.22;;;21.20;;
23015;SDS011;11674;52.428;13.584;2023-04-09T10:41:23;35.95;;;20.63;;
23015;SDS011;11674;52.428;13.584;2023-04-09T10:46:33;34.40;;;19.63;;
23015;SDS011;11674;52.428;13.584;2023-04-09T10:51:42;32.45;;;19.55;;
23015;SDS011;11674;52.428;13.584;2023-04-09T11:07:46;30.50;;;17.70;;
23015;SDS011;11674;52.428;13.584;2023-04-09T11:13:13;28.77;;;18.63;;
23015;SDS011;11674;52.428;13.584;2023-04-09T11:18:27;33.75;;;19.42;;
23015;SDS011;11674;52.428;13.584;2023-04-09T11:23:35;29.95;;;17.23;;
23015;SDS011;11674;52.428;13.584;2023-04-09T11:28:42;27.45;;;16.45;;
23015;SDS011;11674;52.428;13.584;2023-04-09T11:33:49;26.83;;;17.23;;
23015;SDS011;11674;52.428;13.584;2023-04-09T11:38:56;26.95;;;16.75;;
23015;SDS011;11674;52.428;13.584;2023-04-09T11:44:03;27.90;;;16.55;;
23015;SDS011;11674;52.428;13.584;2023-04-09T11:49:11;26.05;;;16.10;;
23015;SDS011;11674;52.428;13.584;2023-04-09T11:54:18;25.23;;;16.00;;
23015;SDS011;11674;52.428;13.584;2023-04-09T11:59:25;26.50;;;15.40;;
23015;SDS011;11674;52.428;13.584;2023-04-09T12:04:32;25.42;;;15.85;;
23015;SDS011;11674;52.428;13.584;2023-04-09T12:09:48;28.83;;;16.95;;
23015;SDS011;11674;52.428;13.584;2023-04-09T12:14:55;28.60;;;16.55;;
23015;SDS011;11674;52.428;13.584;2023-04-09T12:20:02;26.98;;;15.18;;
23015;SDS011;11674;52.428;13.584;2023-04-09T12:25:09;24.25;;;15.15;;
23015;SDS011;11674;52.428;13.584;2023-04-09T12:30:16;23.98;;;14.63;;
23015;SDS011;11674;52.428;13.584;2023-04-09T12:35:23;21.95;;;13.70;;
23015;SDS011;11674;52.428;13.584;2023-04-09T12:40:30;22.88;;;13.77;;
23015;SDS011;11674;52.428;13.584;2023-04-09T12:45:37;21.35;;;13.48;;
23015;SDS011;11674;52.428;13.584;2023-04-09T12:50:44;31.52;;;14.82;;
23015;SDS011;11674;52.428;13.584;2023-04-09T12:55:51;19.80;;;13.40;;
23015;SDS011;11674;52.428;13.584;2023-04-09T13:00:58;22.00;;;13.00;;
23015;SDS011;11674;52.428;13.584;2023-04-09T13:06:05;20.48;;;13.07;;
23015;SDS011;11674;52.428;13.584;2023-04-09T13:11:12;18.88;;;11.80;;
23015;SDS011;11674;52.428;13.584;2023-04-09T13:16:19;17.40;;;11.82;;
23015;SDS011;11674;52.428;13.584;2023-04-09T13:21:26;22.33;;;14.63;;
23015;SDS011;11674;52.428;13.584;2023-04-09T13:26:33;21.48;;;12.65;;
23015;SDS011;11674;52.428;13.584;2023-04-09T13:31:40;20.02;;;12.07;;
23015;SDS011;11674;52.428;13.584;2023-04-09T13:36:47;18.80;;;12.30;;
23015;SDS011;11674;52.428;13.584;2023-04-09T13:41:54;17.38;;;11.38;;
23015;SDS011;11674;52.428;13.584;2023-04-09T13:47:01;21.23;;;11.75;;
23015;SDS011;11674;52.428;13.584;2023-04-09T13:52:08;16.15;;;10.90;;
23015;SDS011;11674;52.428;13.584;2023-04-09T13:57:15;18.42;;;11.48;;
23015;SDS011;11674;52.428;13.584;2023-04-09T14:02:22;19.40;;;12.55;;
23015;SDS011;11674;52.428;13.584;2023-04-09T14:07:29;17.90;;;11.07;;
23015;SDS011;11674;52.428;13.584;2023-04-09T14:12:36;19.10;;;11.75;;
23015;SDS011;11674;52.428;13.584;2023-04-09T14:17:43;18.58;;;11.50;;
23015;SDS011;11674;52.428;13.584;2023-04-09T14:22:50;16.77;;;11.23;;
23015;SDS011;11674;52.428;13.584;2023-04-09T14:27:57;18.58;;;11.38;;
23015;SDS011;11674;52.428;13.584;2023-04-09T14:33:04;19.27;;;11.52;;
23015;SDS011;11674;52.428;13.584;2023-04-09T14:38:11;22.33;;;12.38;;
23015;SDS011;11674;52.428;13.584;2023-04-09T14:43:18;18.58;;;11.73;;
23015;SDS011;11674;52.428;13.584;2023-04-09T14:48:25;24.80;;;13.35;;
23015;SDS011;11674;52.428;13.584;2023-04-09T14:53:32;21.73;;;13.43;;
23015;SDS011;11674;52.428;13.584;2023-04-09T14:58:39;21.90;;;12.73;;
23015;SDS011;11674;52.428;13.584;2023-04-09T15:03:46;21.02;;;12.95;;
23015;SDS011;11674;52.428;13.584;2023-04-09T15:08:53;20.27;;;12.40;;
23015;SDS011;11674;52.428;13.584;2023-04-09T15:14:00;23.15;;;13.05;;
23015;SDS011;11674;52.428;13.584;2023-04-09T15:19:07;22.80;;;12.52;;
23015;SDS011;11674;52.428;13.584;2023-04-09T15:24:14;19.95;;;11.25;;
23015;SDS011;11674;52.428;13.584;2023-04-09T15:29:21;18.42;;;10.75;;
23015;SDS011;11674;52.428;13.584;2023-04-09T15:34:28;18.25;;;11.75;;
23015;SDS011;11674;52.428;13.584;2023-04-09T15:39:35;17.20;;;11.27;;
23015;SDS011;11674;52.428;13.584;2023-04-09T15:44:42;20.50;;;12.50;;
23015;SDS011;11674;52.428;13.584;2023-04-09T15:49:49;19.20;;;11.57;;
23015;SDS011;11674;52.428;13.584;2023-04-09T15:54:56;21.02;;;10.77;;
23015;SDS011;11674;52.428;13.584;2023-04-09T16:00:03;21.63;;;12.38;;
23015;SDS011;11674;52.428;13.584;2023-04-09T16:05:10;18.33;;;12.05;;
23015;SDS011;11674;52.428;13.584;2023-04-09T16:10:17;18.33;;;11.70;;
23015;SDS011;11674;52.428;13.584;2023-04-09T16:15:24;19.00;;;11.82;;
23015;SDS011;11674;52.428;13.584;2023-04-09T16:20:31;18.67;;;11.57;;
23015;SDS011;11674;52.428;13.584;2023-04-09T16:25:38;17.85;;;11.10;;
23015;SDS011;11674;52.428;13.584;2023-04-09T16:30:45;18.45;;;12.35;;
23015;SDS011;11674;52.428;13.584;2023-04-09T16:35:53;20.80;;;12.93;;
23015;SDS011;11674;52.428;13.584;2023-04-09T16:41:00;15.70;;;10.20;;
23015;SDS011;11674;52.428;13.584;2023-04-09T16:46:07;19.05;;;11.95;;
23015;SDS011;11674;52.428;13.584;2023-04-09T16:51:15;17.08;;;11.30;;
23015;SDS011;11674;52.428;13.584;2023-04-09T16:56:21;18.38;;;11.43;;
23015;SDS011;11674;52.428;13.584;2023-04-09T17:01:28;19.80;;;11.75;;
23015;SDS011;11674;52.428;13.584;2023-04-09T17:06:35;21.75;;;10.82;;
23015;SDS011;11674;52.428;13.584;2023-04-09T17:11:42;19.55;;;12.18;;
23015;SDS011;11674;52.428;13.584;2023-04-09T17:16:49;22.98;;;13.02;;
23015;SDS011;11674;52.428;13.584;2023-04-09T17:21:56;17.48;;;11.80;;
23015;SDS011;11674;52.428;13.584;2023-04-09T17:27:03;22.08;;;13.55;;
23015;SDS011;11674;52.428;13.584;2023-04-09T17:32:10;22.55;;;13.95;;
23015;SDS011;11674;52.428;13.584;2023-04-09T17:37:17;24.88;;;13.63;;
23015;SDS011;11674;52.428;13.584;2023-04-09T17:42:24;24.38;;;14.13;;
23015;SDS011;11674;52.428;13.584;2023-04-09T17:47:31;26.02;;;16.67;;
23015;SDS011;11674;52.428;13.584;2023-04-09T17:52:38;28.80;;;16.73;;
23015;SDS011;11674;52.428;13.584;2023-04-09T17:57:45;25.50;;;15.98;;
23015;SDS011;11674;52.428;13.584;2023-04-09T18:02:52;25.83;;;15.68;;
23015;SDS011;11674;52.428;13.584;2023-04-09T18:07:59;29.33;;;17.60;;
23015;SDS011;11674;52.428;13.584;2023-04-09T18:13:06;37.10;;;22.50;;
23015;SDS011;11674;52.428;13.584;2023-04-09T18:18:13;43.05;;;25.20;;
23015;SDS011;11674;52.428;13.584;2023-04-09T18:23:20;56.40;;;33.05;;
23015;SDS011;11674;52.428;13.584;2023-04-09T18:28:34;47.15;;;29.25;;
23015;SDS011;11674;52.428;13.584;2023-04-09T18:33:41;60.05;;;30.63;;
23015;SDS011;11674;52.428;13.584;2023-04-09T18:38:48;48.58;;;29.15;;
23015;SDS011;11674;52.428;13.584;2023-04-09T18:43:55;27.83;;;17.98;;
23015;SDS011;11674;52.428;13.584;2023-04-09T18:49:02;27.60;;;15.80;;
23015;SDS011;11674;52.428;13.584;2023-04-09T18:54:09;34.40;;;19.40;;
23015;SDS011;11674;52.428;13.584;2023-04-09T18:59:16;35.30;;;20.77;;
23015;SDS011;11674;52.428;13.584;2023-04-09T19:04:23;50.10;;;30.27;;
23015;SDS011;11674;52.428;13.584;2023-04-09T19:09:30;62.58;;;36.50;;
23015;SDS011;11674;52.428;13.584;2023-04-09T19:14:37;50.97;;;31.17;;
23015;SDS011;11674;52.428;13.584;2023-04-09T19:19:44;46.40;;;26.52;;
23015;SDS011;11674;52.428;13.584;2023-04-09T19:24:51;41.67;;;25.27;;
23015;SDS011;11674;52.428;13.584;2023-04-09T19:29:58;37.90;;;22.67;;
23015;SDS011;11674;52.428;13.584;2023-04-09T19:35:05;31.67;;;21.45;;
23015;SDS011;11674;52.428;13.584;2023-04-09T19:40:13;41.53;;;22.92;;
23015;SDS011;11674;52.428;13.584;2023-04-09T19:45:20;34.08;;;21.50;;
23015;SDS011;11674;52.428;13.584;2023-04-09T19:50:27;44.85;;;26.55;;
23015;SDS011;11674;52.428;13.584;2023-04-09T19:55:34;36.13;;;22.95;;
23015;SDS011;11674;52.428;13.584;2023-04-09T20:00:41;37.58;;;21.05;;
23015;SDS011;11674;52.428;13.584;2023-04-09T20:05:48;34.35;;;19.48;;
23015;SDS011;11674;52.428;13.584;2023-04-09T20:10:55;31.35;;;19.63;;
23015;SDS011;11674;52.428;13.584;2023-04-09T20:16:02;37.03;;;21.92;;
23015;SDS011;11674;52.428;13.584;2023-04-09T20:21:09;46.63;;;21.48;;
23015;SDS011;11674;52.428;13.584;2023-04-09T20:26:16;38.33;;;21.95;;
23015;SDS011;11674;52.428;13.584;2023-04-09T20:31:23;34.85;;;20.77;;
23015;SDS011;11674;52.428;13.584;2023-04-09T20:36:30;41.65;;;24.15;;
23015;SDS011;11674;52.428;13.584;2023-04-09T20:41:37;37.80;;;21.20;;
23015;SDS011;11674;52.428;13.584;2023-04-09T20:46:44;39.65;;;21.08;;
23015;SDS011;11674;52.428;13.584;2023-04-09T20:51:51;38.25;;;21.85;;
23015;SDS011;11674;52.428;13.584;2023-04-09T20:56:58;37.70;;;21.63;;
23015;SDS011;11674;52.428;13.584;2023-04-09T21:02:05;44.05;;;27.02;;
23015;SDS011;11674;52.428;13.584;2023-04-09T21:07:12;46.10;;;24.20;;
23015;SDS011;11674;52.428;13.584;2023-04-09T21:12:19;59.45;;;32.85;;
23015;SDS011;11674;52.428;13.584;2023-04-09T21:17:26;56.88;;;30.55;;
23015;SDS011;11674;52.428;13.584;2023-04-09T21:22:33;60.67;;;32.33;;
23015;SDS011;11674;52.428;13.584;2023-04-09T21:27:40;64.65;;;36.35;;
23015;SDS011;11674;52.428;13.584;2023-04-09T21:32:47;68.65;;;37.85;;
23015;SDS011;11674;52.428;13.584;2023-04-09T21:37:54;56.00;;;32.67;;
23015;SDS011;11674;52.428;13.584;2023-04-09T21:43:01;60.85;;;33.08;;
23015;SDS011;11674;52.428;13.584;2023-04-09T21:48:08;60.05;;;31.65;;
23015;SDS011;11674;52.428;13.584;2023-04-09T21:53:15;50.20;;;29.25;;
23015;SDS011;11674;52.428;13.584;2023-04-09T21:58:22;53.35;;;28.05;;
23015;SDS011;11674;52.428;13.584;2023-04-09T22:03:29;45.92;;;26.45;;
23015;SDS011;11674;52.428;13.584;2023-04-09T22:08:36;44.47;;;23.83;;
23015;SDS011;11674;52.428;13.584;2023-04-09T22:13:43;42.72;;;24.40;;
23015;SDS011;11674;52.428;13.584;2023-04-09T22:18:51;47.08;;;23.92;;
23015;SDS011;11674;52.428;13.584;2023-04-09T22:23:59;38.53;;;23.30;;
23015;SDS011;11674;52.428;13.584;2023-04-09T22:29:06;45.70;;;23.88;;
23015;SDS011;11674;52.428;13.584;2023-04-09T22:34:13;41.58;;;22.92;;
23015;SDS011;11674;52.428;13.584;2023-04-09T22:39:20;43.10;;;23.27;;
23015;SDS011;11674;52.428;13.584;2023-04-09T22:44:27;38.78;;;22.35;;
23015;SDS011;11674;52.428;13.584;2023-04-09T22:49:34;46.33;;;24.67;;
23015;SDS011;11674;52.428;13.584;2023-04-09T22:54:41;50.25;;;30.05;;
23015;SDS011;11674;52.428;13.584;2023-04-09T22:59:48;50.78;;;30.55;;
23015;SDS011;11674;52.428;13.584;2023-04-09T23:04:55;42.90;;;23.10;;
23015;SDS011;11674;52.428;13.584;2023-04-09T23:10:02;42.50;;;23.88;;
23015;SDS011;11674;52.428;13.584;2023-04-09T23:15:09;46.22;;;25.42;;
23015;SDS011;11674;52.428;13.584;2023-04-09T23:20:16;46.90;;;26.35;;
23015;SDS011;11674;52.428;13.584;2023-04-09T23:25:23;53.05;;;29.55;;
23015;SDS011;11674;52.428;13.584;2023-04-09T23:30:30;63.00;;;34.72;;
23015;SDS011;11674;52.428;13.584;2023-04-09T23:35:38;64.20;;;36.55;;
23015;SDS011;11674;52.428;13.584;2023-04-09T23:40:44;66.30;;;36.47;;
23015;SDS011;11674;52.428;13.584;2023-04-09T23:45:54;65.85;;;37.38;;
23015;SDS011;11674;52.428;13.584;2023-04-09T23:51:04;77.68;;;40.42;;
23015;SDS011;11674;52.428;13.584;2023-04-09T23:56:12;72.50;;;36.38;;
